Time;durP1;ratioP1;P1;durP2;ratioP2;P2;SDS_P1;SDS_P2;PMS_P1;PMS_P2;Temp;Humidity;BMP_temperature;BMP_pressure;BME280_temperature;BME280_humidity;BME280_pressure;Samples;Min_cycle;Max_cycle;Signal;HPM_P1;HPM_P2
2021/04/07 00:00:15;;;;;;;4.20;3.30;;;0.00;93.30;;;;;;5044790;28;20207;-79
2021/04/07 00:02:41;;;;;;;3.35;3.05;;;0.10;93.60;;;;;;5045180;28;20196;-80
2021/04/07 00:05:11;;;;;;;3.63;3.30;;;0.20;93.20;;;;;;5045475;28;20259;-80
2021/04/07 00:07:37;;;;;;;7.47;3.38;;;0.20;93.00;;;;;;5048654;28;20266;-80
2021/04/07 00:10:08;;;;;;;4.90;3.70;;;0.10;93.20;;;;;;5052520;28;20818;-80
2021/04/07 00:12:34;;;;;;;3.70;3.45;;;0.10;93.20;;;;;;5038833;28;20285;-80
2021/04/07 00:15:01;;;;;;;2.53;2.33;;;0.10;93.40;;;;;;5050538;28;20211;-79
2021/04/07 00:17:27;;;;;;;3.88;3.25;;;-0.10;93.00;;;;;;5050153;28;20208;-80
2021/04/07 00:19:54;;;;;;;3.03;2.72;;;0.10;93.50;;;;;;5045631;28;20609;-80
2021/04/07 00:22:20;;;;;;;3.08;2.83;;;0.00;93.30;;;;;;5060192;28;20207;-80
2021/04/07 00:24:47;;;;;;;3.45;2.88;;;-0.10;93.20;;;;;;5042331;28;20275;-80
2021/04/07 00:27:14;;;;;;;2.72;2.50;;;0.00;93.10;;;;;;5047089;28;20201;-80
2021/04/07 00:29:41;;;;;;;4.10;3.70;;;0.10;93.20;;;;;;5044887;28;20196;-80
2021/04/07 00:32:07;;;;;;;3.85;3.53;;;0.10;92.80;;;;;;5052701;28;20200;-80
2021/04/07 00:34:34;;;;;;;2.95;2.75;;;0.10;92.70;;;;;;5048696;28;20200;-79
2021/04/07 00:37:01;;;;;;;4.63;2.97;;;0.10;92.80;;;;;;5051747;28;20219;-80
2021/04/07 00:39:28;;;;;;;5.22;2.85;;;0.10;92.60;;;;;;5051359;28;20204;-80
2021/04/07 00:41:54;;;;;;;4.55;3.75;;;0.00;92.90;;;;;;5044642;28;20204;-80
2021/04/07 00:44:21;;;;;;;3.72;3.35;;;0.10;93.00;;;;;;5045358;28;20311;-80
2021/04/07 00:47:06;;;;;;;4.10;3.45;;;0.00;93.00;;;;;;5035840;28;20610;-80
2021/04/07 00:49:32;;;;;;;3.03;2.53;;;0.20;93.20;;;;;;5057817;28;20318;-80
2021/04/07 00:51:59;;;;;;;4.05;3.13;;;0.10;93.00;;;;;;5043753;28;20287;-80
2021/04/07 00:54:42;;;;;;;2.95;2.65;;;0.20;93.30;;;;;;5102391;27;20738;-79
2021/04/07 00:57:25;;;;;;;3.42;3.17;;;0.20;93.00;;;;;;5100136;27;21075;-80
2021/04/07 01:00:09;;;;;;;3.10;2.38;;;0.40;93.00;;;;;;5101939;28;20330;-79
2021/04/07 01:03:04;;;;;;;2.90;2.60;;;0.40;92.10;;;;;;5097743;27;20798;-80
2021/04/07 01:05:49;;;;;;;5.45;4.07;;;0.30;92.30;;;;;;5082352;28;20203;-80
2021/04/07 01:08:29;;;;;;;4.97;4.10;;;0.30;92.20;;;;;;5077973;28;20601;-80
2021/04/07 01:11:14;;;;;;;5.15;3.00;;;0.10;92.10;;;;;;5084943;28;20580;-79
2021/04/07 01:13:51;;;;;;;4.57;4.07;;;0.10;92.50;;;;;;5083646;28;20216;-80
2021/04/07 01:16:20;;;;;;;4.28;3.72;;;0.10;92.20;;;;;;5086149;28;20203;-80
2021/04/07 01:18:50;;;;;;;4.38;2.95;;;0.10;92.00;;;;;;5081110;28;20197;-79
2021/04/07 01:21:18;;;;;;;3.80;3.15;;;-0.10;91.90;;;;;;5085926;28;20219;-80
2021/04/07 01:23:48;;;;;;;3.45;3.15;;;-0.20;91.90;;;;;;5079981;28;20531;-80
2021/04/07 01:26:18;;;;;;;4.07;3.35;;;0.00;92.20;;;;;;5078837;28;20553;-80
2021/04/07 01:28:47;;;;;;;3.30;3.00;;;0.10;92.20;;;;;;5088275;28;20188;-80
2021/04/07 01:31:17;;;;;;;5.13;3.40;;;0.00;92.00;;;;;;5082979;28;20532;-80
2021/04/07 01:33:46;;;;;;;3.13;2.92;;;0.00;91.80;;;;;;5087618;28;20339;-80
2021/04/07 01:36:17;;;;;;;6.22;3.67;;;0.00;91.70;;;;;;5083385;28;20233;-80
2021/04/07 01:38:46;;;;;;;3.95;3.35;;;-0.10;91.80;;;;;;5086215;28;20247;-80
2021/04/07 01:41:18;;;;;;;3.55;3.25;;;-0.10;91.70;;;;;;5079086;28;20692;-80
2021/04/07 01:43:49;;;;;;;6.38;3.50;;;-0.20;91.80;;;;;;5088953;28;20190;-80
2021/04/07 01:46:19;;;;;;;6.03;3.45;;;-0.10;92.10;;;;;;5080890;28;20203;-80
2021/04/07 01:48:49;;;;;;;5.47;3.17;;;-0.20;91.70;;;;;;5086022;28;20201;-80
2021/04/07 01:51:18;;;;;;;4.22;3.92;;;-0.20;91.80;;;;;;5081769;28;20195;-80
2021/04/07 01:53:48;;;;;;;5.97;3.55;;;-0.20;91.70;;;;;;5082867;28;20274;-80
2021/04/07 01:56:19;;;;;;;7.13;3.97;;;-0.10;91.90;;;;;;5082091;28;20616;-80
2021/04/07 01:58:57;;;;;;;5.82;3.65;;;-0.10;91.70;;;;;;5082474;28;20202;-80
2021/04/07 02:01:26;;;;;;;4.75;3.70;;;-0.20;91.60;;;;;;5084769;28;20632;-79
2021/04/07 02:03:55;;;;;;;4.63;3.35;;;-0.30;91.40;;;;;;5080134;28;20213;-80
2021/04/07 02:06:24;;;;;;;8.05;4.18;;;0.00;91.60;;;;;;5091339;28;20195;-80
2021/04/07 02:08:55;;;;;;;6.32;3.70;;;0.00;91.00;;;;;;5080290;28;20306;-80
2021/04/07 02:11:25;;;;;;;4.88;4.35;;;-0.10;90.70;;;;;;5086382;28;20211;-80
2021/04/07 02:13:55;;;;;;;6.07;4.00;;;-0.10;90.80;;;;;;5071038;28;20256;-80
2021/04/07 02:16:25;;;;;;;4.70;3.88;;;-0.20;90.70;;;;;;5072225;28;20691;-80
2021/04/07 02:18:58;;;;;;;4.72;3.95;;;-0.20;91.00;;;;;;5070702;28;20199;-80
2021/04/07 02:21:28;;;;;;;4.80;3.50;;;-0.20;91.00;;;;;;5071503;28;20219;-80
2021/04/07 02:23:58;;;;;;;8.95;4.65;;;-0.20;90.90;;;;;;5067868;28;20290;-80
2021/04/07 02:26:29;;;;;;;4.55;3.83;;;-0.30;90.90;;;;;;5072421;28;20246;-80
2021/04/07 02:29:02;;;;;;;4.95;4.18;;;-0.20;91.40;;;;;;5075570;28;20187;-80
2021/04/07 02:31:30;;;;;;;4.47;3.97;;;-0.30;90.90;;;;;;5068081;28;20206;-80
2021/04/07 02:34:03;;;;;;;4.15;3.75;;;-0.30;90.80;;;;;;5083151;28;20190;-80
2021/04/07 02:36:36;;;;;;;5.57;4.68;;;-0.30;90.70;;;;;;5063600;28;20668;-80
2021/04/07 02:39:06;;;;;;;4.38;3.28;;;-0.30;90.80;;;;;;5082055;28;20230;-80
2021/04/07 02:41:37;;;;;;;5.13;3.65;;;-0.40;90.50;;;;;;5068120;28;20700;-80
2021/04/07 02:44:06;;;;;;;5.38;4.22;;;-0.50;90.70;;;;;;5073376;28;20199;-80
2021/04/07 02:46:35;;;;;;;4.68;3.90;;;-0.50;90.90;;;;;;5068956;28;20273;-80
2021/04/07 02:49:04;;;;;;;5.65;4.50;;;-0.50;91.00;;;;;;5072264;28;20294;-80
2021/04/07 02:51:33;;;;;;;6.68;4.53;;;-0.40;90.90;;;;;;5062722;28;20824;-81
2021/04/07 02:54:05;;;;;;;6.00;4.80;;;-0.50;91.20;;;;;;5068569;28;20835;-80
2021/04/07 02:56:33;;;;;;;5.60;4.97;;;-0.40;90.70;;;;;;5077903;28;20740;-80
2021/04/07 02:59:04;;;;;;;5.30;4.65;;;-0.40;91.10;;;;;;5071970;28;20598;-80
2021/04/07 03:01:33;;;;;;;5.88;5.10;;;-0.40;90.80;;;;;;5071454;28;20655;-80
2021/04/07 03:04:02;;;;;;;5.35;4.28;;;-0.30;90.80;;;;;;5066622;28;20210;-80
2021/04/07 03:06:31;;;;;;;6.10;5.25;;;-0.40;90.30;;;;;;5071364;28;20673;-80
2021/04/07 03:09:02;;;;;;;5.47;4.70;;;-0.30;90.70;;;;;;5070266;28;20228;-80
2021/04/07 03:11:34;;;;;;;7.88;3.38;;;-0.40;90.50;;;;;;5075080;28;20203;-80
2021/04/07 03:14:03;;;;;;;5.15;3.92;;;-0.40;90.60;;;;;;5071455;28;20199;-80
2021/04/07 03:16:31;;;;;;;3.92;3.45;;;-0.30;90.70;;;;;;5070621;28;20195;-81
2021/04/07 03:19:00;;;;;;;4.40;3.90;;;-0.20;90.40;;;;;;5069660;28;20684;-81
2021/04/07 03:21:33;;;;;;;4.50;4.10;;;-0.30;90.30;;;;;;5070387;28;20761;-81
2021/04/07 03:24:03;;;;;;;4.50;4.10;;;-0.30;90.40;;;;;;5069954;28;20291;-81
2021/04/07 03:26:38;;;;;;;11.20;5.03;;;-0.20;90.40;;;;;;5069988;28;20554;-81
2021/04/07 03:29:10;;;;;;;4.30;3.90;;;-0.20;90.30;;;;;;5070570;28;20668;-81
2021/04/07 03:31:44;;;;;;;6.53;3.90;;;-0.20;89.80;;;;;;5070372;28;20214;-81
2021/04/07 03:34:14;;;;;;;5.60;3.78;;;-0.30;90.00;;;;;;5059715;28;20283;-81
2021/04/07 03:36:45;;;;;;;4.88;3.60;;;-0.30;90.10;;;;;;5051030;28;20215;-81
2021/04/07 03:39:18;;;;;;;5.57;3.78;;;-0.30;90.00;;;;;;5050656;28;20207;-81
2021/04/07 03:41:49;;;;;;;4.53;3.40;;;-0.30;90.00;;;;;;5050726;28;20239;-81
2021/04/07 03:44:18;;;;;;;3.95;3.63;;;-0.20;90.10;;;;;;5050434;28;20200;-81
2021/04/07 03:46:54;;;;;;;4.15;3.42;;;-0.20;90.10;;;;;;5051256;28;20204;-80
2021/04/07 03:49:23;;;;;;;5.03;3.47;;;-0.30;90.20;;;;;;5049784;28;20207;-81
2021/04/07 03:51:55;;;;;;;5.75;3.70;;;-0.20;90.30;;;;;;5050376;28;20614;-81
2021/04/07 03:54:30;;;;;;;6.20;3.50;;;-0.20;90.10;;;;;;5064124;28;20213;-81
2021/04/07 03:57:02;;;;;;;3.97;3.55;;;-0.20;90.30;;;;;;5070642;28;20226;-81
2021/04/07 03:59:33;;;;;;;4.88;3.67;;;-0.40;90.40;;;;;;5070451;28;20246;-81
2021/04/07 04:02:05;;;;;;;5.15;3.65;;;-0.30;90.50;;;;;;5070297;28;20692;-80
2021/04/07 04:04:35;;;;;;;8.48;3.90;;;-0.20;90.70;;;;;;5070547;28;20222;-81
2021/04/07 04:07:05;;;;;;;5.47;2.92;;;-0.20;90.60;;;;;;5070985;28;20199;-81
2021/04/07 04:09:34;;;;;;;6.60;4.38;;;-0.20;90.20;;;;;;5070612;28;20203;-81
2021/04/07 04:12:05;;;;;;;5.10;3.92;;;-0.20;90.10;;;;;;5070397;28;20203;-81
2021/04/07 04:14:37;;;;;;;4.55;4.00;;;-0.20;90.10;;;;;;5069421;28;20582;-81
2021/04/07 04:17:04;;;;;;;7.22;3.50;;;-0.20;89.30;;;;;;5070188;28;20203;-80
2021/04/07 04:19:30;;;;;;;5.90;4.00;;;-0.10;89.60;;;;;;5070550;28;20223;-81
2021/04/07 04:21:56;;;;;;;4.68;3.53;;;-0.20;88.70;;;;;;5070173;28;20756;-80
2021/04/07 04:24:23;;;;;;;4.68;4.18;;;-0.30;88.40;;;;;;5069658;28;20196;-81
2021/04/07 04:26:49;;;;;;;4.25;3.13;;;-0.10;88.50;;;;;;5070544;28;20294;-80
2021/04/07 04:29:17;;;;;;;3.30;3.00;;;-0.10;87.70;;;;;;5069832;28;20206;-81
2021/04/07 04:31:43;;;;;;;6.82;3.90;;;-0.10;87.70;;;;;;5070347;28;20669;-81
2021/04/07 04:34:10;;;;;;;3.67;2.80;;;-0.10;88.00;;;;;;5069648;28;20270;-80
2021/04/07 04:36:36;;;;;;;2.47;2.28;;;-0.10;87.30;;;;;;5069696;28;20227;-81
2021/04/07 04:39:03;;;;;;;3.75;2.63;;;-0.10;87.80;;;;;;5070310;28;20241;-81
2021/04/07 04:41:29;;;;;;;4.53;3.08;;;-0.10;87.30;;;;;;5070687;28;20264;-81
2021/04/07 04:43:56;;;;;;;6.07;3.58;;;-0.20;87.10;;;;;;5069712;28;20187;-80
2021/04/07 04:46:23;;;;;;;3.13;2.92;;;-0.30;87.20;;;;;;5069929;28;20199;-81
2021/04/07 04:48:50;;;;;;;4.05;2.92;;;-0.10;87.70;;;;;;5070166;28;20195;-81
2021/04/07 04:51:16;;;;;;;2.80;2.60;;;-0.20;86.80;;;;;;5070318;28;20211;-81
2021/04/07 04:53:42;;;;;;;3.15;2.72;;;-0.10;86.40;;;;;;5069412;28;20190;-81
2021/04/07 04:56:09;;;;;;;4.28;2.55;;;-0.30;86.70;;;;;;5070020;28;20202;-81
2021/04/07 04:58:35;;;;;;;3.38;2.40;;;-0.10;86.50;;;;;;5067827;28;20199;-81
2021/04/07 05:01:02;;;;;;;2.65;2.45;;;-0.20;86.60;;;;;;5069888;28;20233;-82
2021/04/07 05:03:29;;;;;;;3.75;2.70;;;-0.20;86.10;;;;;;5069717;28;20195;-81
2021/04/07 05:05:55;;;;;;;2.10;1.92;;;-0.10;85.60;;;;;;5069683;28;20191;-81
2021/04/07 05:08:22;;;;;;;2.70;2.50;;;-0.20;85.10;;;;;;5070054;28;20244;-81
2021/04/07 05:10:48;;;;;;;2.75;2.40;;;-0.20;85.30;;;;;;5069533;28;20573;-81
2021/04/07 05:13:15;;;;;;;3.60;2.72;;;0.00;85.80;;;;;;5068925;28;20245;-81
2021/04/07 05:15:42;;;;;;;2.75;2.50;;;-0.10;85.10;;;;;;5069864;28;20696;-81
2021/04/07 05:18:12;;;;;;;2.25;2.05;;;-0.20;85.00;;;;;;5069617;28;20195;-81
2021/04/07 05:20:40;;;;;;;2.50;2.30;;;-0.20;85.30;;;;;;5069800;28;20225;-81
2021/04/07 05:23:07;;;;;;;2.33;1.98;;;-0.20;85.30;;;;;;5069068;28;20219;-81
2021/04/07 05:25:35;;;;;;;1.90;1.73;;;-0.30;84.00;;;;;;5069316;28;20277;-81
2021/04/07 05:28:02;;;;;;;3.30;2.65;;;-0.20;83.70;;;;;;5069669;28;20327;-81
2021/04/07 05:30:58;;;;;;;3.40;2.88;;;-0.10;83.90;;;;;;5069851;28;20253;-81
2021/04/07 05:33:15;;;;;;;4.95;2.83;;;-0.10;83.80;;;;;;5066456;28;20792;-82
2021/04/07 05:35:42;;;;;;;6.35;2.47;;;-0.10;83.40;;;;;;5068366;28;20233;-84
2021/04/07 05:38:09;;;;;;;2.90;2.58;;;0.00;83.40;;;;;;5067945;28;20195;-84
2021/04/07 05:40:37;;;;;;;2.92;2.33;;;0.00;83.70;;;;;;5068543;28;20611;-84
2021/04/07 05:43:03;;;;;;;3.90;3.13;;;-0.10;82.40;;;;;;5068632;28;20227;-84
2021/04/07 05:45:30;;;;;;;2.47;2.13;;;-0.10;82.20;;;;;;5068297;28;20989;-84
2021/04/07 05:47:56;;;;;;;3.80;2.58;;;-0.20;81.40;;;;;;5068691;28;20575;-84
2021/04/07 05:50:23;;;;;;;3.78;2.45;;;-0.30;81.80;;;;;;5072106;28;20191;-84
2021/04/07 05:52:51;;;;;;;2.15;1.95;;;-0.30;81.70;;;;;;5070851;28;20202;-84
2021/04/07 05:55:17;;;;;;;2.47;2.28;;;-0.20;81.20;;;;;;5071432;28;20245;-84
2021/04/07 05:57:44;;;;;;;4.57;2.47;;;-0.20;80.80;;;;;;5071197;28;20187;-84
2021/04/07 06:00:12;;;;;;;2.67;2.47;;;-0.20;81.00;;;;;;5066681;28;20191;-83
2021/04/07 06:02:38;;;;;;;3.40;2.92;;;-0.30;80.70;;;;;;5069114;28;20220;-83
2021/04/07 06:05:05;;;;;;;2.60;2.40;;;-0.30;80.30;;;;;;5072295;28;20200;-84
2021/04/07 06:07:32;;;;;;;3.55;2.47;;;-0.30;80.60;;;;;;5073024;28;20206;-84
2021/04/07 06:09:59;;;;;;;4.68;3.03;;;-0.30;80.90;;;;;;5071906;28;20566;-84
2021/04/07 06:12:25;;;;;;;3.72;2.38;;;-0.40;81.20;;;;;;5074009;28;20199;-84
2021/04/07 06:14:53;;;;;;;3.38;2.22;;;-0.40;80.60;;;;;;5078077;28;20258;-84
2021/04/07 06:17:20;;;;;;;2.45;2.15;;;-0.40;80.10;;;;;;5073954;28;20195;-84
2021/04/07 06:19:46;;;;;;;3.53;2.63;;;-0.40;79.80;;;;;;5072644;28;20188;-84
2021/04/07 06:22:12;;;;;;;3.30;2.25;;;-0.30;80.10;;;;;;5073030;28;20474;-83
2021/04/07 06:24:39;;;;;;;3.00;2.70;;;-0.20;80.30;;;;;;5071604;28;20199;-84
2021/04/07 06:27:07;;;;;;;2.35;2.10;;;0.00;80.00;;;;;;5070861;28;20192;-84
2021/04/07 06:29:33;;;;;;;6.18;2.13;;;0.10;78.70;;;;;;5070598;28;20195;-84
2021/04/07 06:31:59;;;;;;;3.55;2.45;;;0.30;78.80;;;;;;5070657;28;20191;-84
2021/04/07 06:34:26;;;;;;;2.17;1.58;;;0.50;77.90;;;;;;5070216;28;20187;-84
2021/04/07 06:36:52;;;;;;;3.83;2.38;;;0.50;76.60;;;;;;5070934;28;20199;-85
2021/04/07 06:39:19;;;;;;;3.22;2.08;;;0.50;76.10;;;;;;5072841;28;20202;-85
2021/04/07 06:41:45;;;;;;;3.40;2.10;;;0.60;76.30;;;;;;5073242;28;20219;-85
2021/04/07 06:44:17;;;;;;;2.40;2.10;;;0.70;75.90;;;;;;5073334;28;20196;-85
2021/04/07 06:46:44;;;;;;;3.10;2.13;;;0.80;75.40;;;;;;5071655;28;20204;-85
2021/04/07 06:49:12;;;;;;;5.22;1.98;;;0.90;75.30;;;;;;5071945;28;20648;-85
2021/04/07 06:51:44;;;;;;;4.25;2.70;;;0.90;74.20;;;;;;5067815;28;20196;-85
2021/04/07 06:54:11;;;;;;;3.55;2.42;;;1.00;74.00;;;;;;5072201;28;20203;-84
2021/04/07 06:56:39;;;;;;;4.53;2.45;;;1.00;73.50;;;;;;5070343;28;20207;-84
2021/04/07 06:59:06;;;;;;;3.28;2.97;;;1.00;73.20;;;;;;5070639;28;20215;-84
2021/04/07 07:01:33;;;;;;;3.50;2.30;;;1.20;72.20;;;;;;5068966;28;20562;-84
2021/04/07 07:04:00;;;;;;;4.95;2.85;;;1.10;71.70;;;;;;5069904;28;20512;-84
2021/04/07 07:06:27;;;;;;;2.65;2.00;;;1.10;72.10;;;;;;5071384;28;20588;-85
2021/04/07 07:08:53;;;;;;;3.30;1.98;;;1.40;72.50;;;;;;5071825;28;20196;-85
2021/04/07 07:11:20;;;;;;;2.75;2.35;;;1.40;71.10;;;;;;5071311;28;20191;-87
2021/04/07 07:13:46;;;;;;;3.05;2.40;;;1.40;68.90;;;;;;5072645;28;20196;-86
2021/04/07 07:16:27;;;;;;;5.07;2.20;;;1.40;68.30;;;;;;5074625;28;20213;-86
2021/04/07 07:18:54;;;;;;;2.40;2.20;;;1.40;69.30;;;;;;5073001;28;20256;-85
2021/04/07 07:21:25;;;;;;;7.38;4.32;;;1.50;68.50;;;;;;5075514;28;20253;-86
2021/04/07 07:23:52;;;;;;;2.38;1.98;;;1.40;68.60;;;;;;5072366;28;20234;-86
2021/04/07 07:26:21;;;;;;;2.45;2.10;;;1.20;67.50;;;;;;5072898;28;20179;-87
2021/04/07 07:28:51;;;;;;;6.95;2.42;;;1.30;68.00;;;;;;5073280;28;20274;-87
2021/04/07 07:31:24;;;;;;;3.97;2.47;;;1.10;68.90;;;;;;5071902;28;20206;-86
2021/04/07 07:33:51;;;;;;;7.80;3.67;;;1.20;70.00;;;;;;5070709;28;20203;-86
2021/04/07 07:36:19;;;;;;;5.30;2.50;;;1.30;69.30;;;;;;5072261;28;20183;-86
2021/04/07 07:38:48;;;;;;;4.30;2.35;;;1.50;68.20;;;;;;5072395;28;20241;-86
2021/04/07 07:41:18;;;;;;;3.95;3.33;;;1.60;68.50;;;;;;5073650;28;20183;-86
2021/04/07 07:43:44;;;;;;;6.18;3.78;;;1.50;67.80;;;;;;5071163;28;20676;-86
2021/04/07 07:46:13;;;;;;;2.75;2.20;;;1.30;66.80;;;;;;5074694;28;20188;-87
2021/04/07 07:48:40;;;;;;;4.00;2.67;;;1.20;67.30;;;;;;5078030;28;20198;-86
2021/04/07 07:51:19;;;;;;;2.85;2.30;;;1.30;67.00;;;;;;5077236;28;20191;-87
2021/04/07 07:53:46;;;;;;;4.07;2.20;;;1.50;66.70;;;;;;5073651;28;20203;-85
2021/04/07 07:56:14;;;;;;;2.10;2.00;;;1.60;66.80;;;;;;5072728;28;20260;-86
2021/04/07 07:58:46;;;;;;;6.93;2.40;;;1.70;65.50;;;;;;5071939;28;20261;-85
2021/04/07 08:01:14;;;;;;;2.45;2.22;;;1.60;64.60;;;;;;5070440;28;20295;-86
2021/04/07 08:03:41;;;;;;;2.40;1.60;;;1.30;65.90;;;;;;5070224;28;20214;-84
2021/04/07 08:06:08;;;;;;;1.55;1.40;;;1.30;66.60;;;;;;5071273;28;20191;-84
2021/04/07 08:08:36;;;;;;;3.25;2.30;;;1.20;67.00;;;;;;5076601;28;20191;-85
2021/04/07 08:11:04;;;;;;;2.25;2.05;;;1.10;67.60;;;;;;5070958;28;20187;-85
2021/04/07 08:13:36;;;;;;;2.70;2.50;;;1.00;68.40;;;;;;5071412;28;20212;-85
2021/04/07 08:16:03;;;;;;;5.07;2.00;;;1.10;69.30;;;;;;5071111;28;20183;-85
2021/04/07 08:18:31;;;;;;;2.17;2.03;;;1.30;69.30;;;;;;5071837;28;20245;-84
2021/04/07 08:20:59;;;;;;;3.22;2.88;;;1.40;69.30;;;;;;5072405;28;20203;-86
2021/04/07 08:23:28;;;;;;;6.55;1.70;;;1.60;67.80;;;;;;5070155;28;20226;-85
2021/04/07 08:25:56;;;;;;;3.78;1.90;;;1.70;67.80;;;;;;5070876;28;20286;-83
2021/04/07 08:28:23;;;;;;;3.28;2.13;;;1.90;67.20;;;;;;5071378;28;20673;-86
2021/04/07 08:30:50;;;;;;;4.60;2.10;;;1.90;66.90;;;;;;5070211;28;20203;-86
2021/04/07 08:33:19;;;;;;;2.25;1.92;;;2.00;66.20;;;;;;5075667;28;20256;-85
2021/04/07 08:35:46;;;;;;;2.38;2.20;;;2.00;66.70;;;;;;5069783;28;20214;-84
2021/04/07 08:38:14;;;;;;;2.53;1.95;;;2.10;67.30;;;;;;5069694;28;20530;-85
2021/04/07 08:40:42;;;;;;;2.22;2.05;;;1.90;68.20;;;;;;5069658;28;20554;-86
2021/04/07 08:43:12;;;;;;;4.50;2.20;;;1.90;69.40;;;;;;5069424;28;20211;-86
2021/04/07 08:45:42;;;;;;;3.65;2.05;;;2.10;70.40;;;;;;5066836;28;20274;-86
2021/04/07 08:48:19;;;;;;;2.15;1.95;;;2.20;70.90;;;;;;5068785;28;20215;-85
2021/04/07 08:50:48;;;;;;;2.63;2.35;;;2.00;69.90;;;;;;5067365;28;20194;-85
2021/04/07 08:53:16;;;;;;;3.55;2.05;;;2.00;70.20;;;;;;5068925;28;20199;-85
2021/04/07 08:55:51;;;;;;;3.78;2.28;;;2.00;68.40;;;;;;5069364;28;20187;-85
2021/04/07 08:58:24;;;;;;;1.85;1.75;;;2.00;68.50;;;;;;5066951;28;20237;-86
2021/04/07 09:00:53;;;;;;;2.67;2.10;;;2.20;68.70;;;;;;5069288;28;20629;-86
2021/04/07 09:03:22;;;;;;;2.05;1.85;;;2.80;68.40;;;;;;5069323;28;20688;-86
2021/04/07 09:05:50;;;;;;;5.25;2.45;;;2.90;65.70;;;;;;5069869;28;20199;-86
2021/04/07 09:08:17;;;;;;;2.80;2.50;;;2.60;67.10;;;;;;5069692;28;20210;-83
2021/04/07 09:10:45;;;;;;;3.60;2.85;;;2.30;68.80;;;;;;5069313;28;20187;-84
2021/04/07 09:13:14;;;;;;;6.15;2.78;;;1.90;70.90;;;;;;5064127;28;20191;-83
2021/04/07 09:15:52;;;;;;;3.15;2.85;;;1.80;74.20;;;;;;5068468;28;20249;-84
2021/04/07 09:18:30;;;;;;;7.65;4.95;;;2.10;76.00;;;;;;5066746;28;20290;-84
2021/04/07 09:20:57;;;;;;;4.47;3.03;;;2.20;75.40;;;;;;5066244;28;20672;-84
2021/04/07 09:23:27;;;;;;;2.15;1.75;;;2.20;76.40;;;;;;5070522;28;20244;-85
2021/04/07 09:28:50;;;;;;;4.28;3.58;;;1.90;78.20;;;;;;5072736;28;20207;-85
2021/04/07 09:31:28;;;;;;;4.72;4.18;;;2.30;77.90;;;;;;5073124;28;20188;-85
2021/04/07 09:33:57;;;;;;;3.33;2.63;;;2.00;76.20;;;;;;5070455;28;20614;-85
2021/04/07 09:36:27;;;;;;;9.20;5.45;;;2.10;74.70;;;;;;5072047;28;20184;-85
2021/04/07 09:38:58;;;;;;;2.88;2.55;;;2.20;74.80;;;;;;5069579;28;20215;-85
2021/04/07 09:41:26;;;;;;;18.23;10.93;;;2.30;73.70;;;;;;5073137;28;20196;-85
2021/04/07 09:43:54;;;;;;;15.50;8.57;;;2.30;70.70;;;;;;5069587;28;20199;-85
2021/04/07 09:46:22;;;;;;;8.57;6.45;;;2.50;69.00;;;;;;5072607;28;20200;-84
2021/04/07 09:48:50;;;;;;;3.75;3.45;;;2.50;67.60;;;;;;5070264;28;20199;-84
2021/04/07 09:51:32;;;;;;;9.52;8.60;;;2.40;67.50;;;;;;5073193;28;20597;-85
2021/04/07 09:54:14;;;;;;;5.90;4.72;;;2.60;65.30;;;;;;5071267;28;20710;-85
2021/04/07 09:56:52;;;;;;;3.55;3.20;;;2.90;63.20;;;;;;5071363;28;20195;-84
2021/04/07 09:59:20;;;;;;;6.80;6.15;;;3.00;62.40;;;;;;5073783;28;20279;-84
2021/04/07 10:01:47;;;;;;;3.15;2.85;;;3.40;61.90;;;;;;5072418;28;20273;-84
2021/04/07 10:04:13;;;;;;;2.70;2.50;;;3.50;59.30;;;;;;5073169;28;20245;-86
2021/04/07 10:06:40;;;;;;;2.17;1.98;;;3.60;60.30;;;;;;5072694;28;20203;-84
2021/04/07 10:09:09;;;;;;;2.28;2.08;;;3.70;58.60;;;;;;5072478;28;20194;-84
2021/04/07 10:11:38;;;;;;;7.53;2.50;;;3.70;57.70;;;;;;5073114;28;20196;-85
2021/04/07 10:14:06;;;;;;;3.85;2.90;;;3.90;58.20;;;;;;5072492;28;20278;-85
2021/04/07 10:16:33;;;;;;;2.85;2.65;;;3.90;57.40;;;;;;5072545;28;20188;-84
2021/04/07 10:19:05;;;;;;;2.50;1.75;;;3.90;58.20;;;;;;5072739;28;20195;-84
2021/04/07 10:21:31;;;;;;;6.75;2.50;;;3.70;57.30;;;;;;5070109;28;20849;-85
2021/04/07 10:23:58;;;;;;;3.85;2.20;;;3.80;59.10;;;;;;5069582;28;20200;-82
2021/04/07 10:26:25;;;;;;;5.47;4.45;;;3.60;60.40;;;;;;5070760;28;20188;-82
2021/04/07 10:28:56;;;;;;;2.90;2.45;;;3.30;62.30;;;;;;5071175;28;20206;-83
2021/04/07 10:31:23;;;;;;;5.78;2.92;;;3.00;64.90;;;;;;5071150;28;20199;-83
2021/04/07 10:33:49;;;;;;;2.85;2.22;;;2.80;65.60;;;;;;5069829;28;20204;-83
2021/04/07 10:36:28;;;;;;;5.70;3.10;;;2.70;66.20;;;;;;5070640;28;20266;-82
2021/04/07 10:38:54;;;;;;;2.78;2.35;;;2.70;67.60;;;;;;5066635;28;20203;-82
2021/04/07 10:41:25;;;;;;;3.28;2.40;;;2.70;68.30;;;;;;5070895;28;20241;-82
2021/04/07 10:43:51;;;;;;;5.25;3.00;;;2.70;69.50;;;;;;5068333;28;20219;-83
2021/04/07 10:46:28;;;;;;;3.22;2.33;;;3.10;69.70;;;;;;5070594;28;20191;-83
2021/04/07 10:48:56;;;;;;;4.25;2.08;;;3.00;65.20;;;;;;5069087;28;20551;-83
2021/04/07 10:51:24;;;;;;;2.30;1.73;;;2.80;62.50;;;;;;5070891;28;20657;-82
2021/04/07 10:53:56;;;;;;;1.63;1.52;;;3.00;62.80;;;;;;5067878;28;20196;-83
2021/04/07 10:56:24;;;;;;;3.50;1.92;;;3.40;61.90;;;;;;5071946;28;20278;-83
2021/04/07 10:58:56;;;;;;;4.65;2.10;;;3.20;59.30;;;;;;5075266;28;20302;-83
2021/04/07 11:01:29;;;;;;;2.40;1.98;;;3.50;59.90;;;;;;5075939;28;20258;-83
2021/04/07 11:03:56;;;;;;;2.00;1.75;;;3.80;60.10;;;;;;5072234;28;20207;-83
2021/04/07 11:06:24;;;;;;;3.47;2.30;;;4.00;58.50;;;;;;5072176;28;20648;-82
2021/04/07 11:08:52;;;;;;;3.83;3.38;;;4.20;57.70;;;;;;5072151;28;20207;-82
2021/04/07 11:11:24;;;;;;;6.25;3.30;;;4.60;56.70;;;;;;5071587;28;20230;-82
2021/04/07 11:13:51;;;;;;;2.10;1.90;;;4.10;55.10;;;;;;5072230;28;20199;-83
2021/04/07 11:16:17;;;;;;;5.22;3.88;;;4.10;56.00;;;;;;5071596;28;20262;-82
2021/04/07 11:18:44;;;;;;;5.15;4.20;;;3.90;55.80;;;;;;5071873;28;20585;-82
2021/04/07 11:21:11;;;;;;;4.07;3.67;;;3.90;56.40;;;;;;5070771;28;20601;-83
2021/04/07 11:23:45;;;;;;;3.20;2.90;;;4.10;56.40;;;;;;5072782;28;20227;-85
2021/04/07 11:26:11;;;;;;;2.28;1.70;;;4.30;56.20;;;;;;5071718;28;20203;-83
2021/04/07 11:28:39;;;;;;;2.72;1.60;;;4.60;55.00;;;;;;5072072;28;20192;-84
2021/04/07 11:31:09;;;;;;;5.05;2.38;;;4.70;54.70;;;;;;5070289;28;20672;-84
2021/04/07 11:33:40;;;;;;;2.47;1.40;;;4.60;54.00;;;;;;5069106;28;20248;-83
2021/04/07 11:36:15;;;;;;;3.85;2.10;;;4.40;53.10;;;;;;5071190;28;20206;-82
2021/04/07 11:38:46;;;;;;;2.92;2.45;;;4.50;53.90;;;;;;5071788;28;20191;-84
2021/04/07 11:46:41;;;;;;;1.85;1.73;;;5.90;52.30;;;;;;5070139;28;20202;-83
2021/04/07 11:49:08;;;;;;;3.10;1.90;;;5.50;50.80;;;;;;5070203;28;20202;-83
2021/04/07 11:51:37;;;;;;;3.00;1.80;;;5.80;51.00;;;;;;5070111;28;20219;-83
2021/04/07 11:54:06;;;;;;;2.85;1.60;;;5.60;50.10;;;;;;5069850;28;20223;-83
2021/04/07 11:56:33;;;;;;;7.38;2.47;;;5.30;50.80;;;;;;5068890;28;20192;-83
2021/04/07 11:59:00;;;;;;;4.53;1.98;;;5.20;50.10;;;;;;5069961;28;20214;-82
2021/04/07 12:01:26;;;;;;;2.63;1.58;;;5.30;49.50;;;;;;5069474;28;20203;-82
2021/04/07 12:03:53;;;;;;;3.63;1.98;;;5.30;49.20;;;;;;5070557;28;20242;-82
2021/04/07 12:06:20;;;;;;;3.38;1.80;;;5.20;49.60;;;;;;5071231;28;20782;-82
2021/04/07 12:08:46;;;;;;;3.65;2.10;;;5.00;50.20;;;;;;5070784;28;20207;-82
2021/04/07 12:11:14;;;;;;;2.80;1.60;;;4.80;49.50;;;;;;5070806;28;20261;-82
2021/04/07 12:13:41;;;;;;;2.90;1.35;;;4.40;49.90;;;;;;5068636;28;20668;-83
2021/04/07 12:16:07;;;;;;;3.85;1.27;;;4.50;50.60;;;;;;5069947;28;20257;-82
2021/04/07 12:18:34;;;;;;;3.40;1.73;;;4.30;51.10;;;;;;5070344;28;20206;-82
2021/04/07 12:21:01;;;;;;;3.05;1.80;;;4.10;52.30;;;;;;5070109;28;20645;-82
2021/04/07 12:23:27;;;;;;;2.35;1.80;;;4.20;52.60;;;;;;5068965;28;20223;-82
2021/04/07 12:25:53;;;;;;;3.95;3.47;;;4.40;52.60;;;;;;5070110;28;20195;-82
2021/04/07 12:28:22;;;;;;;2.42;1.83;;;4.60;51.70;;;;;;5069735;28;20288;-82
2021/04/07 12:30:49;;;;;;;1.98;1.77;;;4.90;51.60;;;;;;5068865;28;20600;-82
2021/04/07 12:33:17;;;;;;;9.00;6.75;;;4.80;51.60;;;;;;5068084;28;20248;-82
2021/04/07 12:35:43;;;;;;;3.70;3.40;;;4.90;51.70;;;;;;5069952;28;20199;-82
2021/04/07 12:38:10;;;;;;;12.50;9.77;;;4.60;52.40;;;;;;5071528;28;20195;-82
2021/04/07 12:40:37;;;;;;;1.88;1.75;;;4.70;52.70;;;;;;5075356;28;20187;-81
2021/04/07 12:43:03;;;;;;;1.90;1.45;;;4.90;53.80;;;;;;5068663;28;20583;-82
2021/04/07 12:45:31;;;;;;;4.60;2.30;;;4.80;52.80;;;;;;5069165;28;20187;-84
2021/04/07 12:48:00;;;;;;;2.22;1.90;;;4.90;53.10;;;;;;5068974;28;20191;-84
2021/04/07 12:50:27;;;;;;;4.22;2.17;;;5.40;52.90;;;;;;5069731;28;20547;-84
2021/04/07 12:52:53;;;;;;;2.97;2.28;;;5.50;52.80;;;;;;5066818;28;20691;-82
2021/04/07 12:58:04;;;;;;;3.65;1.65;;;5.40;51.00;;;;;;5068801;28;20238;-82
2021/04/07 13:00:33;;;;;;;3.78;2.03;;;5.10;52.10;;;;;;5079041;28;20195;-84
2021/04/07 13:03:00;;;;;;;2.50;1.80;;;5.00;52.70;;;;;;5073717;28;20230;-84
2021/04/07 13:05:26;;;;;;;3.00;1.67;;;4.90;53.10;;;;;;5068900;28;20698;-82
2021/04/07 13:07:53;;;;;;;4.85;4.30;;;4.80;53.70;;;;;;5068473;28;20196;-82
2021/04/07 13:10:20;;;;;;;2.13;2.00;;;4.70;53.60;;;;;;5068169;28;20664;-83
2021/04/07 13:12:47;;;;;;;4.13;2.13;;;4.60;53.60;;;;;;5068695;28;20256;-83